EDPA weather

Aalen-Heidenheim/Elchingen Airport
Aalen, Baden-Württemberg, Germany

Public forecast

Using degrees Celsius for public forecast. Weather courtesy of forecast.io.

METAR (pilot weather report)

Closest report is Adolf Würth Airport, 27.9 nm (51.6 km) NW. Retrieved 2019/09/19 15:20 UTC (38 minutes ago):

EDTY 191520Z 07008KT 040V100 CAVOK 15/01 Q1028

TAF (pilot weather forecast)

Forecast is more than 12 hours old.

Closest forecast is Augsburg Airport, 33.9 nm (62.8 km) SE. Retrieved 2009/12/02 06:00 UTC (10 years ago):

TAF COR EDMA 020600Z 0206/0220 VRB03KT 3000 BR SCT004 PROB40 TEMPO 0206/0208 0600 FG VV002 BECMG 0208/0210 9999